Terminal Aerodrome Forecast
Issued by NWS Wilmington, OH

Home | Current Version | Previous Version | Text Only | Print | Product List | Glossary On
Versions: 1 2 3 4 5 6 7 8 9 10 11 12 13 14 15 16 17 18 19 20 21 22 23 24 25 26 27 28 29 30 31 32 33 34
000
FTUS41 KILN 302057 AAA
TAFCVG
TAF AMD
KCVG 302057Z 3021/0124 13010KT 5SM BR VCSH OVC008
     FM302200 14010KT P6SM VCSH SCT015 BKN025
     FM010000 17010KT 4SM BR VCTS BKN015CB
      TEMPO 0103/0107 2SM SHRA BR OVC008
     FM010700 18006KT 4SM BR OVC007
     FM011400 24005KT P6SM BKN015
     FM011800 23006KT P6SM BKN035=

USA.gov is the U.S. government's official web portal to all federal, state and local government web resources and services.